Time;durP1;ratioP1;P1;durP2;ratioP2;P2;SDS_P1;SDS_P2;PMS_P1;PMS_P2;Temp;Humidity;BMP_temperature;BMP_pressure;BME280_temperature;BME280_humidity;BME280_pressure;Samples;Min_cycle;Max_cycle;Signal;HPM_P1;HPM_P2
2022/03/12 00:00:28;;;;;;;7.23;5.30;;;;;;;;;;5030079;28;20241;-80
2022/03/12 00:02:57;;;;;;;8.07;5.23;;;;;;;;;;5035805;28;20235;-80
2022/03/12 00:05:27;;;;;;;8.10;5.70;;;;;;;;;;5036171;28;20294;-80
2022/03/12 00:07:54;;;;;;;4.93;4.27;;;;;;;;;;5038166;28;20212;-82
2022/03/12 00:10:23;;;;;;;8.20;5.23;;;;;;;;;;5034937;28;20314;-80
2022/03/12 00:12:51;;;;;;;8.37;5.03;;;;;;;;;;5035201;28;20307;-83
2022/03/12 00:15:18;;;;;;;6.90;4.73;;;;;;;;;;5034793;28;20273;-80
2022/03/12 00:17:45;;;;;;;6.60;5.20;;;;;;;;;;5034546;28;20254;-79
2022/03/12 00:20:16;;;;;;;8.97;5.07;;;;;;;;;;5034122;28;20270;-79
2022/03/12 00:22:47;;;;;;;8.73;4.73;;;;;;;;;;5035089;28;20202;-81
2022/03/12 00:25:14;;;;;;;9.50;4.80;;;;;;;;;;5033554;28;20234;-84
2022/03/12 00:27:43;;;;;;;6.67;5.27;;;;;;;;;;5034085;28;20209;-80
2022/03/12 00:30:11;;;;;;;6.47;5.13;;;;;;;;;;5034106;28;20241;-80
2022/03/12 00:32:39;;;;;;;10.50;5.37;;;;;;;;;;5034073;28;20215;-80
2022/03/12 00:35:08;;;;;;;8.60;5.47;;;;;;;;;;5034296;28;20234;-80
2022/03/12 00:37:37;;;;;;;6.67;5.10;;;;;;;;;;5033954;28;20230;-80
2022/03/12 00:40:05;;;;;;;8.50;5.47;;;;;;;;;;5033728;28;20296;-80
2022/03/12 00:42:32;;;;;;;6.97;5.40;;;;;;;;;;5034143;28;20217;-80
2022/03/12 00:44:59;;;;;;;6.43;5.37;;;;;;;;;;5033894;28;20237;-79
2022/03/12 00:47:27;;;;;;;8.20;5.30;;;;;;;;;;5033437;28;20213;-80
2022/03/12 00:49:55;;;;;;;6.27;5.10;;;;;;;;;;5033373;28;20245;-80
2022/03/12 00:52:22;;;;;;;6.87;5.30;;;;;;;;;;5033396;28;20213;-82
2022/03/12 00:54:50;;;;;;;7.30;5.40;;;;;;;;;;5033276;28;20249;-80
2022/03/12 00:57:17;;;;;;;6.93;4.93;;;;;;;;;;5033518;28;20238;-79
2022/03/12 00:59:45;;;;;;;9.93;5.10;;;;;;;;;;5033349;28;20234;-80
2022/03/12 01:02:15;;;;;;;5.57;4.77;;;;;;;;;;5033426;28;20245;-83
2022/03/12 01:04:42;;;;;;;7.33;5.37;;;;;;;;;;5033265;28;20207;-81
2022/03/12 01:07:10;;;;;;;7.20;5.33;;;;;;;;;;5033454;28;20217;-80
2022/03/12 01:09:38;;;;;;;6.17;5.40;;;;;;;;;;5027847;28;20227;-80
2022/03/12 01:12:07;;;;;;;8.13;5.40;;;;;;;;;;5013842;28;20207;-80
2022/03/12 01:14:37;;;;;;;9.33;5.50;;;;;;;;;;5013325;28;20207;-80
2022/03/12 01:17:05;;;;;;;7.00;4.90;;;;;;;;;;5013521;28;20219;-80
2022/03/12 01:19:34;;;;;;;8.83;4.80;;;;;;;;;;5013110;28;20746;-82
2022/03/12 01:22:02;;;;;;;6.10;5.23;;;;;;;;;;5013449;28;20307;-80
2022/03/12 01:24:29;;;;;;;6.47;5.07;;;;;;;;;;5013306;28;20211;-80
2022/03/12 01:26:56;;;;;;;5.87;5.23;;;;;;;;;;5013270;28;20246;-80
2022/03/12 01:29:25;;;;;;;5.70;4.67;;;;;;;;;;5014109;28;20227;-80
2022/03/12 01:31:52;;;;;;;6.00;4.67;;;;;;;;;;5013020;28;20617;-80
2022/03/12 01:34:19;;;;;;;6.07;4.87;;;;;;;;;;5013695;28;20215;-79
2022/03/12 01:36:46;;;;;;;7.70;5.23;;;;;;;;;;5012716;28;20239;-80
2022/03/12 01:39:14;;;;;;;11.00;5.07;;;;;;;;;;5013590;28;20223;-80
2022/03/12 01:41:42;;;;;;;5.73;5.07;;;;;;;;;;5013153;28;20240;-79
2022/03/12 01:44:09;;;;;;;10.17;5.00;;;;;;;;;;5013323;28;20302;-80
2022/03/12 01:46:40;;;;;;;8.07;4.50;;;;;;;;;;5012742;28;20235;-80
2022/03/12 01:49:08;;;;;;;5.63;4.97;;;;;;;;;;5013892;28;20321;-79
2022/03/12 01:51:35;;;;;;;6.87;5.07;;;;;;;;;;5015242;28;20239;-79
2022/03/12 01:54:03;;;;;;;5.90;5.00;;;;;;;;;;5039979;28;20218;-80
2022/03/12 01:56:30;;;;;;;9.80;4.83;;;;;;;;;;5027916;28;20243;-80
2022/03/12 01:58:59;;;;;;;4.93;4.40;;;;;;;;;;5013978;28;20266;-80
2022/03/12 02:01:28;;;;;;;5.57;5.03;;;;;;;;;;5015661;28;20268;-80
2022/03/12 02:03:58;;;;;;;8.83;5.10;;;;;;;;;;5038898;28;20213;-80
2022/03/12 02:06:26;;;;;;;5.10;4.60;;;;;;;;;;5034893;28;20758;-80
2022/03/12 02:08:58;;;;;;;6.03;4.77;;;;;;;;;;5036027;28;20236;-80
2022/03/12 02:11:27;;;;;;;5.87;4.63;;;;;;;;;;5035944;28;20368;-80
2022/03/12 02:13:58;;;;;;;5.20;4.63;;;;;;;;;;5036627;28;20242;-80
2022/03/12 02:16:25;;;;;;;5.77;4.50;;;;;;;;;;5035821;28;20238;-80
2022/03/12 02:18:52;;;;;;;8.20;5.50;;;;;;;;;;5036226;28;20235;-81
2022/03/12 02:21:34;;;;;;;7.33;5.00;;;;;;;;;;5048039;28;20236;-80
2022/03/12 02:24:02;;;;;;;6.80;4.73;;;;;;;;;;5043628;28;20195;-80
2022/03/12 02:26:29;;;;;;;5.70;4.67;;;;;;;;;;5016008;28;20245;-80
2022/03/12 02:28:57;;;;;;;5.00;4.50;;;;;;;;;;5016822;28;20230;-80
2022/03/12 02:31:26;;;;;;;7.00;4.97;;;;;;;;;;5015970;28;20262;-80
2022/03/12 02:33:53;;;;;;;5.20;4.70;;;;;;;;;;5016480;28;20207;-80
2022/03/12 02:36:27;;;;;;;5.43;4.87;;;;;;;;;;5015555;28;20242;-80
2022/03/12 02:38:56;;;;;;;5.30;4.40;;;;;;;;;;5018824;28;20243;-80
2022/03/12 02:41:25;;;;;;;5.97;4.87;;;;;;;;;;5035562;28;20244;-82
2022/03/12 02:43:52;;;;;;;6.57;4.80;;;;;;;;;;5036241;28;20213;-80
2022/03/12 02:46:19;;;;;;;6.73;5.00;;;;;;;;;;5035520;28;20239;-82
2022/03/12 02:48:49;;;;;;;6.07;5.10;;;;;;;;;;5036010;28;20233;-79
2022/03/12 02:51:16;;;;;;;12.40;5.13;;;;;;;;;;5035546;28;20269;-80
2022/03/12 02:53:44;;;;;;;9.30;5.23;;;;;;;;;;5035966;28;20237;-80
2022/03/12 02:56:12;;;;;;;7.90;5.17;;;;;;;;;;5022323;28;20231;-80
2022/03/12 02:58:40;;;;;;;6.57;4.83;;;;;;;;;;5016277;28;20227;-80
2022/03/12 03:01:08;;;;;;;5.93;5.27;;;;;;;;;;5015710;28;20245;-80
2022/03/12 03:03:37;;;;;;;8.23;5.17;;;;;;;;;;5016293;28;20317;-81
2022/03/12 03:06:04;;;;;;;6.77;5.20;;;;;;;;;;5029860;28;20274;-80
2022/03/12 03:08:32;;;;;;;6.80;4.70;;;;;;;;;;5035417;28;20260;-80
2022/03/12 03:10:59;;;;;;;8.23;5.07;;;;;;;;;;5035185;28;20231;-80
2022/03/12 03:13:42;;;;;;;8.57;5.00;;;;;;;;;;5035680;28;20249;-80
2022/03/12 03:16:10;;;;;;;5.30;4.43;;;;;;;;;;5034727;28;20321;-79
2022/03/12 03:18:39;;;;;;;9.03;4.87;;;;;;;;;;5035476;28;20234;-79
2022/03/12 03:21:07;;;;;;;6.17;4.83;;;;;;;;;;5034813;28;20776;-82
2022/03/12 03:23:34;;;;;;;6.43;4.70;;;;;;;;;;5035669;28;20206;-80
2022/03/12 03:26:02;;;;;;;5.23;4.57;;;;;;;;;;5034882;28;20706;-80
2022/03/12 03:28:29;;;;;;;10.47;5.17;;;;;;;;;;5035083;28;20230;-80
2022/03/12 03:30:57;;;;;;;5.40;4.77;;;;;;;;;;5035037;28;20261;-80
2022/03/12 03:33:27;;;;;;;9.67;4.90;;;;;;;;;;5035412;28;20203;-79
2022/03/12 03:35:54;;;;;;;6.40;5.20;;;;;;;;;;5034807;28;20231;-80
2022/03/12 03:38:21;;;;;;;6.37;4.83;;;;;;;;;;5033331;28;20238;-80
2022/03/12 03:40:48;;;;;;;8.07;4.70;;;;;;;;;;5015235;28;20243;-80
2022/03/12 03:43:16;;;;;;;9.23;4.57;;;;;;;;;;5015395;28;20222;-79
2022/03/12 03:45:44;;;;;;;8.27;4.93;;;;;;;;;;5014794;28;20239;-80
2022/03/12 03:48:14;;;;;;;7.60;5.07;;;;;;;;;;5014697;28;20703;-80
2022/03/12 03:50:41;;;;;;;6.50;5.07;;;;;;;;;;5014359;28;20781;-80
2022/03/12 03:53:11;;;;;;;5.47;4.97;;;;;;;;;;5015252;28;20589;-80
2022/03/12 03:55:38;;;;;;;5.07;4.57;;;;;;;;;;5014773;28;20227;-79
2022/03/12 03:58:06;;;;;;;9.70;4.73;;;;;;;;;;5015027;28;20282;-80
2022/03/12 04:00:33;;;;;;;11.90;4.80;;;;;;;;;;5014761;28;20239;-79
2022/03/12 04:03:02;;;;;;;8.03;4.83;;;;;;;;;;5026717;28;20206;-80
2022/03/12 04:05:33;;;;;;;11.63;4.73;;;;;;;;;;5033995;28;20234;-80
2022/03/12 04:08:00;;;;;;;7.33;4.30;;;;;;;;;;5034620;28;20195;-80
2022/03/12 04:10:27;;;;;;;6.73;5.10;;;;;;;;;;5034352;28;20757;-81
2022/03/12 04:12:55;;;;;;;6.97;5.10;;;;;;;;;;5034957;28;20210;-80
2022/03/12 04:15:22;;;;;;;7.33;4.90;;;;;;;;;;5034119;28;20242;-81
2022/03/12 04:17:51;;;;;;;6.23;4.60;;;;;;;;;;5034184;28;20261;-79
2022/03/12 04:20:38;;;;;;;7.50;5.50;;;;;;;;;;5034060;28;20258;-80
2022/03/12 04:23:07;;;;;;;8.10;5.20;;;;;;;;;;5034535;28;20217;-79
2022/03/12 04:25:35;;;;;;;5.83;4.53;;;;;;;;;;5033786;28;20229;-79
2022/03/12 04:28:03;;;;;;;5.73;5.00;;;;;;;;;;5033197;28;20746;-79
2022/03/12 04:30:30;;;;;;;6.03;5.13;;;;;;;;;;5033894;28;20226;-80
2022/03/12 04:32:57;;;;;;;6.37;5.20;;;;;;;;;;5034167;28;20242;-80
2022/03/12 04:35:25;;;;;;;5.93;5.03;;;;;;;;;;5024795;28;20583;-79
2022/03/12 04:37:52;;;;;;;6.97;5.13;;;;;;;;;;5025351;28;20206;-79
2022/03/12 04:40:23;;;;;;;5.40;4.90;;;;;;;;;;5033666;28;20238;-80
2022/03/12 04:42:50;;;;;;;6.50;5.10;;;;;;;;;;5034351;28;20227;-79
2022/03/12 04:45:19;;;;;;;6.87;4.23;;;;;;;;;;5033822;28;20230;-79
2022/03/12 04:47:48;;;;;;;7.50;5.80;;;;;;;;;;5033960;28;20666;-79
2022/03/12 04:50:16;;;;;;;7.13;4.63;;;;;;;;;;5033638;28;20241;-79
2022/03/12 04:52:44;;;;;;;5.20;4.70;;;;;;;;;;5033974;28;20217;-80
2022/03/12 04:55:12;;;;;;;6.57;4.83;;;;;;;;;;5033505;28;20234;-80
2022/03/12 04:57:41;;;;;;;5.87;4.83;;;;;;;;;;5030583;28;20677;-79
2022/03/12 05:00:10;;;;;;;7.60;5.20;;;;;;;;;;5013759;28;20718;-79
2022/03/12 05:02:37;;;;;;;6.37;4.77;;;;;;;;;;5014446;28;20207;-79
2022/03/12 05:05:05;;;;;;;6.67;5.20;;;;;;;;;;5020330;28;20234;-80
2022/03/12 05:07:32;;;;;;;6.13;4.90;;;;;;;;;;5036672;28;20705;-80
2022/03/12 05:10:00;;;;;;;8.50;5.13;;;;;;;;;;5069819;23;20229;-82
2022/03/12 05:12:27;;;;;;;5.87;4.77;;;;;;;;;;5044810;28;20202;-83
2022/03/12 05:14:56;;;;;;;9.40;5.33;;;;;;;;;;5052321;28;20325;-82
2022/03/12 05:17:26;;;;;;;7.40;4.80;;;;;;;;;;5054972;28;20330;-82
2022/03/12 05:19:53;;;;;;;6.90;4.93;;;;;;;;;;5056058;28;20824;-82
2022/03/12 05:22:20;;;;;;;7.03;4.67;;;;;;;;;;5056403;28;20666;-82
2022/03/12 05:24:47;;;;;;;8.73;4.67;;;;;;;;;;5055445;28;20229;-83
2022/03/12 05:27:15;;;;;;;5.13;4.40;;;;;;;;;;5056792;28;20206;-83
2022/03/12 05:29:45;;;;;;;6.63;5.10;;;;;;;;;;5049991;28;20644;-82
2022/03/12 05:32:15;;;;;;;7.13;4.63;;;;;;;;;;5016816;28;20227;-82
2022/03/12 05:34:43;;;;;;;7.43;5.23;;;;;;;;;;5003587;28;20303;-82
2022/03/12 05:37:10;;;;;;;8.07;4.90;;;;;;;;;;4996777;28;20211;-82
2022/03/12 05:39:37;;;;;;;10.40;5.00;;;;;;;;;;4996240;28;20231;-82
2022/03/12 05:42:05;;;;;;;15.57;4.90;;;;;;;;;;4996987;28;20686;-82
2022/03/12 05:44:33;;;;;;;10.27;4.23;;;;;;;;;;4996597;28;20218;-83
2022/03/12 05:47:00;;;;;;;8.93;4.27;;;;;;;;;;4996982;28;20211;-83
2022/03/12 05:49:28;;;;;;;9.63;5.20;;;;;;;;;;4997854;28;20250;-82
2022/03/12 05:51:56;;;;;;;5.73;4.60;;;;;;;;;;5019160;28;20218;-83
2022/03/12 05:54:23;;;;;;;7.43;5.10;;;;;;;;;;5017637;28;20214;-82
2022/03/12 05:56:50;;;;;;;5.67;4.30;;;;;;;;;;5015536;28;20235;-83
2022/03/12 05:59:18;;;;;;;5.07;4.57;;;;;;;;;;4998214;28;20239;-83
2022/03/12 06:01:45;;;;;;;5.53;4.47;;;;;;;;;;5001736;28;20231;-81
2022/03/12 06:04:15;;;;;;;7.50;4.90;;;;;;;;;;5023700;28;20298;-81
2022/03/12 06:06:45;;;;;;;7.13;4.97;;;;;;;;;;5024077;28;20243;-81
2022/03/12 06:09:13;;;;;;;5.60;3.90;;;;;;;;;;5024439;28;20229;-81
2022/03/12 06:11:42;;;;;;;6.03;4.10;;;;;;;;;;5004032;28;20612;-80
2022/03/12 06:14:15;;;;;;;9.70;4.17;;;;;;;;;;5005807;28;20268;-81
2022/03/12 06:16:48;;;;;;;6.60;4.57;;;;;;;;;;5005104;28;20250;-82
2022/03/12 06:19:15;;;;;;;5.50;4.20;;;;;;;;;;4997195;28;20264;-83
2022/03/12 06:21:44;;;;;;;12.10;4.90;;;;;;;;;;5014743;28;20652;-83
2022/03/12 06:24:12;;;;;;;5.60;4.60;;;;;;;;;;5016102;28;20195;-84
2022/03/12 06:26:39;;;;;;;5.63;4.87;;;;;;;;;;5014283;28;20231;-84
2022/03/12 06:29:12;;;;;;;6.70;4.63;;;;;;;;;;5016041;28;20302;-84
2022/03/12 06:31:40;;;;;;;6.20;4.63;;;;;;;;;;5027982;28;20235;-84
2022/03/12 06:34:09;;;;;;;7.67;4.87;;;;;;;;;;5035624;28;20202;-83
2022/03/12 06:36:37;;;;;;;6.90;4.87;;;;;;;;;;5035167;28;20650;-84
2022/03/12 06:39:06;;;;;;;8.93;5.03;;;;;;;;;;5030957;28;20491;-86
2022/03/12 06:41:38;;;;;;;5.43;4.93;;;;;;;;;;5031622;28;20262;-85
2022/03/12 06:44:06;;;;;;;7.77;4.90;;;;;;;;;;5033352;28;20218;-86
2022/03/12 06:46:34;;;;;;;5.20;4.70;;;;;;;;;;5031723;28;20242;-85
2022/03/12 06:49:01;;;;;;;5.23;4.73;;;;;;;;;;5032081;28;20238;-85
2022/03/12 06:51:28;;;;;;;5.17;4.57;;;;;;;;;;5032906;28;20324;-85
2022/03/12 06:53:56;;;;;;;6.80;4.80;;;;;;;;;;5035702;28;20202;-85
2022/03/12 06:56:24;;;;;;;6.20;4.60;;;;;;;;;;5035137;28;20237;-86
2022/03/12 06:58:51;;;;;;;5.30;4.77;;;;;;;;;;5053185;28;20234;-86
2022/03/12 07:01:18;;;;;;;5.03;4.53;;;;;;;;;;5058730;28;20241;-86
2022/03/12 07:03:45;;;;;;;6.33;4.70;;;;;;;;;;5059060;28;20224;-86
2022/03/12 07:06:12;;;;;;;5.80;4.60;;;;;;;;;;5052978;28;20280;-86
2022/03/12 07:08:40;;;;;;;4.90;4.27;;;;;;;;;;5037921;28;20309;-86
2022/03/12 07:11:08;;;;;;;5.57;4.47;;;;;;;;;;5038257;28;20227;-86
2022/03/12 07:13:36;;;;;;;6.03;4.70;;;;;;;;;;5039261;28;20274;-85
2022/03/12 07:16:03;;;;;;;6.83;4.87;;;;;;;;;;5038567;28;20235;-86
2022/03/12 07:18:30;;;;;;;5.90;4.60;;;;;;;;;;5038333;28;20194;-86
2022/03/12 07:20:58;;;;;;;6.23;4.37;;;;;;;;;;5038681;28;20226;-87
2022/03/12 07:23:25;;;;;;;11.37;5.27;;;;;;;;;;5037983;28;20207;-86
2022/03/12 07:25:52;;;;;;;7.07;4.97;;;;;;;;;;5037379;28;20245;-86
2022/03/12 07:28:20;;;;;;;5.97;4.97;;;;;;;;;;5037034;28;20215;-86
2022/03/12 07:30:48;;;;;;;6.97;4.83;;;;;;;;;;5037404;28;20239;-85
2022/03/12 07:33:15;;;;;;;7.77;5.40;;;;;;;;;;5038133;28;20202;-86
2022/03/12 07:35:43;;;;;;;6.50;5.10;;;;;;;;;;5037315;28;20243;-85
2022/03/12 07:38:10;;;;;;;7.77;5.70;;;;;;;;;;5038096;28;20187;-85
2022/03/12 07:40:37;;;;;;;6.13;4.73;;;;;;;;;;5038033;28;20243;-85
2022/03/12 07:43:05;;;;;;;7.33;5.50;;;;;;;;;;5038689;28;20195;-86
2022/03/12 07:45:34;;;;;;;6.27;5.17;;;;;;;;;;5038815;28;20233;-86
2022/03/12 07:48:03;;;;;;;5.57;3.80;;;;;;;;;;5039001;28;20174;-87
2022/03/12 07:50:30;;;;;;;4.90;4.40;;;;;;;;;;5036594;28;20239;-85
2022/03/12 07:52:59;;;;;;;4.40;4.00;;;;;;;;;;5039830;28;20167;-86
2022/03/12 07:55:27;;;;;;;4.13;3.73;;;;;;;;;;5050140;28;20223;-85
2022/03/12 07:57:54;;;;;;;6.13;4.63;;;;;;;;;;5038737;28;20176;-85
2022/03/12 08:00:28;;;;;;;5.93;4.33;;;;;;;;;;5038134;28;20235;-85
2022/03/12 08:02:56;;;;;;;4.90;4.50;;;;;;;;;;5033321;28;20179;-85
2022/03/12 08:05:25;;;;;;;4.87;4.37;;;;;;;;;;5031400;28;20227;-86
2022/03/12 08:07:54;;;;;;;7.60;4.63;;;;;;;;;;5038761;28;20199;-86
2022/03/12 08:10:21;;;;;;;4.97;4.37;;;;;;;;;;5021458;28;20295;-85
2022/03/12 08:12:48;;;;;;;5.23;4.73;;;;;;;;;;5038473;28;20209;-84
2022/03/12 08:15:16;;;;;;;8.63;4.73;;;;;;;;;;5036889;28;20215;-85
2022/03/12 08:17:44;;;;;;;6.63;4.70;;;;;;;;;;5038277;28;20200;-85
2022/03/12 08:20:11;;;;;;;5.00;4.53;;;;;;;;;;5048653;28;20706;-85
2022/03/12 08:22:41;;;;;;;8.43;4.60;;;;;;;;;;5036262;28;20203;-84
2022/03/12 08:25:09;;;;;;;6.03;4.53;;;;;;;;;;5029572;28;20238;-86
2022/03/12 08:27:37;;;;;;;3.07;2.87;;;;;;;;;;5028831;28;20685;-86
2022/03/12 08:30:09;;;;;;;7.40;4.63;;;;;;;;;;5016999;28;20229;-85
2022/03/12 08:32:37;;;;;;;7.73;5.20;;;;;;;;;;5015517;28;20206;-86
2022/03/12 08:35:07;;;;;;;5.67;4.17;;;;;;;;;;5014685;28;20233;-86
2022/03/12 08:37:34;;;;;;;7.00;4.57;;;;;;;;;;5014929;28;20194;-85
2022/03/12 08:40:06;;;;;;;4.67;4.27;;;;;;;;;;5015252;28;20258;-86
2022/03/12 08:42:33;;;;;;;7.83;4.83;;;;;;;;;;5016077;28;20617;-85
2022/03/12 08:45:00;;;;;;;6.17;4.17;;;;;;;;;;5014939;28;20593;-86
2022/03/12 08:47:27;;;;;;;8.57;4.73;;;;;;;;;;5021992;28;20214;-86
2022/03/12 08:49:54;;;;;;;5.40;4.37;;;;;;;;;;5025197;28;20238;-87
2022/03/12 08:52:23;;;;;;;7.93;4.37;;;;;;;;;;5029847;28;20210;-87
2022/03/12 08:54:50;;;;;;;10.47;4.83;;;;;;;;;;5023484;28;20269;-84
2022/03/12 08:57:18;;;;;;;7.27;4.50;;;;;;;;;;5017912;28;20250;-87
2022/03/12 08:59:46;;;;;;;5.97;4.37;;;;;;;;;;5015950;28;20249;-87
2022/03/12 09:02:14;;;;;;;7.83;4.47;;;;;;;;;;5016824;28;20211;-87
2022/03/12 09:04:41;;;;;;;5.13;4.63;;;;;;;;;;5021591;28;20199;-87
2022/03/12 09:07:08;;;;;;;7.10;4.13;;;;;;;;;;5015091;28;20210;-87
2022/03/12 09:09:35;;;;;;;6.00;4.53;;;;;;;;;;5015885;28;20239;-88
2022/03/12 09:12:03;;;;;;;6.57;5.00;;;;;;;;;;5033854;28;20692;-86
2022/03/12 09:14:34;;;;;;;6.93;5.27;;;;;;;;;;5032115;28;20246;-87
2022/03/12 09:17:02;;;;;;;6.43;5.10;;;;;;;;;;5014369;28;20199;-87
2022/03/12 09:19:29;;;;;;;6.93;4.97;;;;;;;;;;5013077;28;20241;-87
2022/03/12 09:21:57;;;;;;;9.57;5.50;;;;;;;;;;5032956;28;20213;-86
2022/03/12 09:24:24;;;;;;;6.43;4.97;;;;;;;;;;5032813;28;20566;-87
2022/03/12 09:26:52;;;;;;;6.77;4.90;;;;;;;;;;5032051;28;20258;-87
2022/03/12 09:29:19;;;;;;;5.83;4.87;;;;;;;;;;5032360;28;20231;-88
2022/03/12 09:31:48;;;;;;;7.13;5.10;;;;;;;;;;5012672;28;20265;-87
2022/03/12 09:34:16;;;;;;;10.63;5.10;;;;;;;;;;5015505;28;20212;-88
2022/03/12 09:36:43;;;;;;;5.43;4.53;;;;;;;;;;5032542;28;20601;-87
2022/03/12 09:39:10;;;;;;;7.90;5.30;;;;;;;;;;5026930;28;20281;-89
2022/03/12 09:41:40;;;;;;;6.73;4.57;;;;;;;;;;5014142;28;20267;-88
2022/03/12 09:44:07;;;;;;;5.03;4.37;;;;;;;;;;5014485;28;20257;-88
2022/03/12 09:46:35;;;;;;;7.97;4.97;;;;;;;;;;5029115;28;20230;-88
2022/03/12 09:49:10;;;;;;;7.47;4.97;;;;;;;;;;5034113;28;20235;-87
2022/03/12 09:51:38;;;;;;;7.63;4.50;;;;;;;;;;5015708;28;20322;-88
2022/03/12 09:54:05;;;;;;;8.60;5.17;;;;;;;;;;5014892;28;20214;-88
2022/03/12 09:56:38;;;;;;;5.83;4.67;;;;;;;;;;5031260;28;20600;-88
2022/03/12 09:59:06;;;;;;;7.50;5.00;;;;;;;;;;5034044;28;20225;-87
2022/03/12 10:01:33;;;;;;;5.97;4.63;;;;;;;;;;5016336;28;20250;-88
2022/03/12 10:04:00;;;;;;;5.97;4.67;;;;;;;;;;5015063;28;20207;-87
2022/03/12 10:06:30;;;;;;;7.63;4.87;;;;;;;;;;5030888;28;20238;-87
2022/03/12 10:08:57;;;;;;;7.13;4.70;;;;;;;;;;5034066;28;20280;-87
2022/03/12 10:11:24;;;;;;;10.03;5.40;;;;;;;;;;5016594;28;20618;-87
2022/03/12 10:13:51;;;;;;;8.97;5.20;;;;;;;;;;5013310;28;20200;-85
2022/03/12 10:16:22;;;;;;;6.90;4.93;;;;;;;;;;5027979;28;20292;-87
2022/03/12 10:18:49;;;;;;;7.10;4.70;;;;;;;;;;5032528;28;20252;-86
2022/03/12 10:21:16;;;;;;;6.53;5.27;;;;;;;;;;5032822;28;20288;-88
2022/03/12 10:23:45;;;;;;;6.07;4.27;;;;;;;;;;5020526;28;20211;-85
2022/03/12 10:26:12;;;;;;;5.93;4.80;;;;;;;;;;5013702;28;20246;-86
2022/03/12 10:28:40;;;;;;;5.03;4.40;;;;;;;;;;5017173;28;20227;-85
2022/03/12 10:31:09;;;;;;;7.60;4.90;;;;;;;;;;5002392;28;20236;-86
2022/03/12 10:33:37;;;;;;;6.43;4.90;;;;;;;;;;4997240;28;20215;-86
2022/03/12 10:36:12;;;;;;;5.67;4.60;;;;;;;;;;4996825;28;20263;-86
2022/03/12 10:38:40;;;;;;;6.53;4.20;;;;;;;;;;4997100;28;20227;-85
2022/03/12 10:41:09;;;;;;;9.57;4.70;;;;;;;;;;4996878;28;20236;-86
2022/03/12 10:43:45;;;;;;;7.13;4.80;;;;;;;;;;4996859;28;20230;-85
2022/03/12 10:46:14;;;;;;;9.70;4.60;;;;;;;;;;4996166;28;20667;-85
2022/03/12 10:48:41;;;;;;;7.87;4.83;;;;;;;;;;5012991;28;20310;-86
2022/03/12 10:51:09;;;;;;;6.97;5.10;;;;;;;;;;5015677;28;20254;-85
2022/03/12 10:53:36;;;;;;;7.30;4.67;;;;;;;;;;5017080;28;20261;-84
2022/03/12 10:56:06;;;;;;;7.93;5.00;;;;;;;;;;5015970;28;20261;-85
2022/03/12 10:58:36;;;;;;;7.10;5.13;;;;;;;;;;5016522;28;20659;-85
2022/03/12 11:01:04;;;;;;;9.13;5.53;;;;;;;;;;5015736;28;20235;-87
2022/03/12 11:03:32;;;;;;;11.47;5.93;;;;;;;;;;5016096;28;20211;-87
2022/03/12 11:05:59;;;;;;;13.57;4.70;;;;;;;;;;5015397;28;20761;-86
2022/03/12 11:08:27;;;;;;;7.47;5.17;;;;;;;;;;5015568;28;20207;-87
2022/03/12 11:10:57;;;;;;;6.70;4.70;;;;;;;;;;5015702;28;20282;-87
2022/03/12 11:13:26;;;;;;;5.60;5.00;;;;;;;;;;5016148;28;20287;-86
2022/03/12 11:16:06;;;;;;;6.33;5.10;;;;;;;;;;5015339;28;20239;-87
2022/03/12 11:18:33;;;;;;;5.67;4.77;;;;;;;;;;5015193;28;20254;-86
2022/03/12 11:21:01;;;;;;;6.10;4.77;;;;;;;;;;5014824;28;20246;-86
2022/03/12 11:23:31;;;;;;;5.37;4.53;;;;;;;;;;5015326;28;20294;-86
2022/03/12 11:26:04;;;;;;;7.43;5.03;;;;;;;;;;5014370;28;20242;-87
2022/03/12 11:28:31;;;;;;;6.27;5.23;;;;;;;;;;5014910;28;20219;-87
2022/03/12 11:30:59;;;;;;;6.43;4.80;;;;;;;;;;5014950;28;20234;-86
2022/03/12 11:33:28;;;;;;;7.17;4.93;;;;;;;;;;5015022;28;20257;-87
2022/03/12 11:35:59;;;;;;;5.83;4.90;;;;;;;;;;5014571;28;20259;-87
2022/03/12 11:38:26;;;;;;;8.47;5.23;;;;;;;;;;5014981;28;20553;-87
2022/03/12 11:40:54;;;;;;;6.83;4.73;;;;;;;;;;5014447;28;20384;-87
2022/03/12 11:43:26;;;;;;;5.20;4.67;;;;;;;;;;5015104;28;20235;-87
2022/03/12 11:45:55;;;;;;;6.65;5.00;;;;;;;;;;5014501;28;20253;-87
2022/03/12 11:48:23;;;;;;;6.30;4.45;;;;;;;;;;5014710;28;20302;-87
2022/03/12 11:50:51;;;;;;;5.53;4.90;;;;;;;;;;5014314;28;20703;-86
2022/03/12 11:53:19;;;;;;;5.95;4.53;;;;;;;;;;5015433;28;20203;-87
2022/03/12 11:55:48;;;;;;;5.63;5.03;;;;;;;;;;5014562;28;20227;-87
2022/03/12 11:58:15;;;;;;;7.63;4.80;;;;;;;;;;5014750;28;20207;-87
2022/03/12 12:00:45;;;;;;;5.95;5.00;;;;;;;;;;5014045;28;20286;-87
2022/03/12 12:03:14;;;;;;;8.13;4.90;;;;;;;;;;5015197;28;20309;-87
2022/03/12 12:05:42;;;;;;;6.95;5.32;;;;;;;;;;5014964;28;20318;-87
2022/03/12 12:08:11;;;;;;;6.50;5.22;;;;;;;;;;5014408;28;20735;-85
2022/03/12 12:10:42;;;;;;;7.57;5.05;;;;;;;;;;5014377;28;20314;-87
2022/03/12 12:13:10;;;;;;;6.85;5.18;;;;;;;;;;5014458;28;20212;-87
2022/03/12 12:15:39;;;;;;;5.20;4.47;;;;;;;;;;5014244;28;20238;-87
2022/03/12 12:18:07;;;;;;;8.20;4.93;;;;;;;;;;5014797;28;20671;-87
2022/03/12 12:20:35;;;;;;;7.85;4.93;;;;;;;;;;5014703;28;20242;-87
2022/03/12 12:23:03;;;;;;;8.60;5.22;;;;;;;;;;5015556;28;20206;-88
2022/03/12 12:25:34;;;;;;;9.75;5.30;;;;;;;;;;5014662;28;20762;-88
2022/03/12 12:28:01;;;;;;;6.43;4.80;;;;;;;;;;5022065;28;20211;-87
2022/03/12 12:30:38;;;;;;;6.95;4.93;;;;;;;;;;5015454;28;20594;-87
2022/03/12 12:33:14;;;;;;;5.72;4.88;;;;;;;;;;5016062;28;20191;-86
2022/03/12 12:35:42;;;;;;;6.43;4.90;;;;;;;;;;5015778;28;20262;-85
2022/03/12 12:38:09;;;;;;;7.03;5.35;;;;;;;;;;5015329;28;20238;-87
2022/03/12 12:40:40;;;;;;;5.82;4.97;;;;;;;;;;5014006;28;20246;-88
2022/03/12 12:43:09;;;;;;;5.85;4.90;;;;;;;;;;5014548;28;20647;-86
2022/03/12 12:45:44;;;;;;;5.80;5.20;;;;;;;;;;5014207;28;20237;-87
2022/03/12 12:48:14;;;;;;;7.40;5.05;;;;;;;;;;5014305;28;20210;-87
2022/03/12 12:50:41;;;;;;;5.60;4.90;;;;;;;;;;5013433;28;20251;-87
2022/03/12 12:53:10;;;;;;;7.85;5.53;;;;;;;;;;5013928;28;20214;-87
2022/03/12 12:55:38;;;;;;;5.65;5.07;;;;;;;;;;5013131;28;20231;-87
2022/03/12 12:58:06;;;;;;;5.63;4.80;;;;;;;;;;5013697;28;20204;-87
2022/03/12 13:00:38;;;;;;;6.95;5.18;;;;;;;;;;5013040;28;20605;-87
2022/03/12 13:03:09;;;;;;;5.30;4.53;;;;;;;;;;5014098;28;20191;-87
2022/03/12 13:05:47;;;;;;;7.38;5.30;;;;;;;;;;5016194;28;20243;-87
2022/03/12 13:08:16;;;;;;;5.07;4.53;;;;;;;;;;5023194;28;20188;-87
2022/03/12 13:10:45;;;;;;;5.78;4.93;;;;;;;;;;5019264;28;20231;-88
2022/03/12 13:13:14;;;;;;;7.35;5.80;;;;;;;;;;5015269;28;20211;-86
2022/03/12 13:15:41;;;;;;;6.72;5.07;;;;;;;;;;5012820;28;20227;-85
2022/03/12 13:18:35;;;;;;;8.15;5.70;;;;;;;;;;5013516;28;20208;-86
2022/03/12 13:21:02;;;;;;;5.78;5.18;;;;;;;;;;5016008;28;20242;-85
2022/03/12 13:23:32;;;;;;;8.20;5.22;;;;;;;;;;5020313;28;20215;-86
2022/03/12 13:26:00;;;;;;;6.32;5.60;;;;;;;;;;5013603;28;20425;-87
2022/03/12 13:28:35;;;;;;;6.18;5.03;;;;;;;;;;5013129;28;20200;-87
2022/03/12 13:31:03;;;;;;;6.18;5.15;;;;;;;;;;5012835;28;20235;-87
2022/03/12 13:33:30;;;;;;;6.00;5.38;;;;;;;;;;5015660;28;20204;-87
2022/03/12 13:35:57;;;;;;;8.13;5.80;;;;;;;;;;5019122;28;20238;-87
2022/03/12 13:38:25;;;;;;;7.53;5.50;;;;;;;;;;5024896;28;20207;-86
2022/03/12 13:40:52;;;;;;;6.18;5.55;;;;;;;;;;5012781;28;20236;-86
2022/03/12 13:43:21;;;;;;;8.38;5.20;;;;;;;;;;5012911;28;20210;-87
2022/03/12 13:46:00;;;;;;;6.88;5.45;;;;;;;;;;5012468;28;20707;-86
2022/03/12 13:48:28;;;;;;;6.53;5.43;;;;;;;;;;5013124;28;20202;-87
2022/03/12 13:50:57;;;;;;;7.53;5.75;;;;;;;;;;5011904;28;20254;-87
2022/03/12 13:53:29;;;;;;;6.00;5.22;;;;;;;;;;5013496;28;20199;-87
2022/03/12 13:56:02;;;;;;;6.97;5.25;;;;;;;;;;5012648;28;20331;-86
2022/03/12 13:58:31;;;;;;;5.88;5.28;;;;;;;;;;5013272;28;20278;-86
2022/03/12 14:01:00;;;;;;;6.32;5.15;;;;;;;;;;5015556;28;20242;-86
2022/03/12 14:03:30;;;;;;;6.13;4.35;;;;;;;;;;5016972;28;20203;-86
2022/03/12 14:05:57;;;;;;;6.47;4.90;;;;;;;;;;5016120;28;20270;-85
2022/03/12 14:08:28;;;;;;;5.40;4.90;;;;;;;;;;5016487;28;20227;-87
2022/03/12 14:10:56;;;;;;;6.43;4.88;;;;;;;;;;5016303;28;20231;-87
2022/03/12 14:13:23;;;;;;;5.97;4.93;;;;;;;;;;5016722;28;20211;-88
2022/03/12 14:15:54;;;;;;;6.88;5.97;;;;;;;;;;5015935;28;20245;-87
2022/03/12 14:18:26;;;;;;;5.63;5.03;;;;;;;;;;5016620;28;20339;-88
2022/03/12 14:20:53;;;;;;;6.18;5.53;;;;;;;;;;5016220;28;20624;-86
2022/03/12 14:23:22;;;;;;;5.72;5.15;;;;;;;;;;5016686;28;20668;-87
2022/03/12 14:25:50;;;;;;;8.18;4.88;;;;;;;;;;5016579;28;20661;-86
2022/03/12 14:28:26;;;;;;;6.95;4.88;;;;;;;;;;5018307;28;20261;-86
2022/03/12 14:30:55;;;;;;;7.15;5.53;;;;;;;;;;5008268;28;20243;-87
2022/03/12 14:33:22;;;;;;;8.70;5.07;;;;;;;;;;5016355;28;20573;-87
2022/03/12 14:35:50;;;;;;;6.22;5.30;;;;;;;;;;5015766;28;20667;-87
2022/03/12 14:38:18;;;;;;;5.90;5.22;;;;;;;;;;5027855;28;20246;-87
2022/03/12 14:40:46;;;;;;;5.93;4.63;;;;;;;;;;5042162;28;20241;-88
2022/03/12 14:46:00;;;;;;;5.28;4.78;;;;;;;;;;5056346;28;20221;-88
2022/03/12 14:48:30;;;;;;;6.18;4.97;;;;;;;;;;5042283;28;20626;-87
2022/03/12 14:51:03;;;;;;;7.32;5.00;;;;;;;;;;5027831;28;20311;-87
2022/03/12 14:56:23;;;;;;;6.20;4.85;;;;;;;;;;5032438;28;20227;-88